sensor_id;sensor_type;location;lat;lon;timestamp;pressure;altitude;pressure_sealevel;temperature;humidity
19672;BME280;9983;51.114;13.788;2023-02-01T00:01:47;99185.78;;;5.84;100.00
19672;BME280;9983;51.114;13.788;2023-02-01T00:06:48;99202.59;;;5.40;100.00
19672;BME280;9983;51.114;13.788;2023-02-01T00:11:48;99199.25;;;5.38;100.00
19672;BME280;9983;51.114;13.788;2023-02-01T00:16:48;99199.88;;;5.49;100.00
19672;BME280;9983;51.114;13.788;2023-02-01T00:21:48;99204.25;;;5.68;100.00
19672;BME280;9983;51.114;13.788;2023-02-01T00:26:49;99192.25;;;5.82;100.00
19672;BME280;9983;51.114;13.788;2023-02-01T00:31:50;99192.00;;;5.75;100.00
19672;BME280;9983;51.114;13.788;2023-02-01T00:36:51;99203.25;;;5.69;100.00
19672;BME280;9983;51.114;13.788;2023-02-01T00:41:51;99203.69;;;5.92;100.00
19672;BME280;9983;51.114;13.788;2023-02-01T00:46:51;99204.91;;;5.52;100.00
19672;BME280;9983;51.114;13.788;2023-02-01T00:51:51;99189.03;;;5.78;100.00
19672;BME280;9983;51.114;13.788;2023-02-01T00:56:52;99201.25;;;5.71;100.00
19672;BME280;9983;51.114;13.788;2023-02-01T01:01:52;99199.13;;;5.57;100.00
19672;BME280;9983;51.114;13.788;2023-02-01T01:06:52;99192.91;;;5.66;100.00
19672;BME280;9983;51.114;13.788;2023-02-01T01:11:53;99183.94;;;5.67;100.00
19672;BME280;9983;51.114;13.788;2023-02-01T01:16:53;99197.06;;;5.51;100.00
19672;BME280;9983;51.114;13.788;2023-02-01T01:21:53;99188.94;;;5.70;100.00
19672;BME280;9983;51.114;13.788;2023-02-01T01:26:54;99195.38;;;5.77;100.00
19672;BME280;9983;51.114;13.788;2023-02-01T01:31:54;99184.78;;;5.67;100.00
19672;BME280;9983;51.114;13.788;2023-02-01T01:36:54;99192.81;;;5.58;100.00
19672;BME280;9983;51.114;13.788;2023-02-01T01:41:54;99196.09;;;5.52;100.00
19672;BME280;9983;51.114;13.788;2023-02-01T01:46:55;99188.50;;;5.57;100.00
19672;BME280;9983;51.114;13.788;2023-02-01T01:51:59;99178.69;;;5.57;100.00
19672;BME280;9983;51.114;13.788;2023-02-01T01:57:04;99196.28;;;5.68;100.00
19672;BME280;9983;51.114;13.788;2023-02-01T02:02:06;99180.91;;;5.80;100.00
19672;BME280;9983;51.114;13.788;2023-02-01T02:07:10;99182.03;;;5.42;100.00
19672;BME280;9983;51.114;13.788;2023-02-01T02:12:11;99188.78;;;5.54;100.00
19672;BME280;9983;51.114;13.788;2023-02-01T02:39:05;99159.78;;;5.78;100.00
19672;BME280;9983;51.114;13.788;2023-02-01T02:44:15;99152.34;;;5.64;100.00
19672;BME280;9983;51.114;13.788;2023-02-01T02:49:49;99142.75;;;5.36;100.00
19672;BME280;9983;51.114;13.788;2023-02-01T02:55:11;99148.75;;;5.55;100.00
19672;BME280;9983;51.114;13.788;2023-02-01T03:00:16;99137.72;;;5.32;100.00
19672;BME280;9983;51.114;13.788;2023-02-01T03:05:41;99155.97;;;5.63;100.00
19672;BME280;9983;51.114;13.788;2023-02-01T03:16:18;99159.63;;;5.62;100.00
19672;BME280;9983;51.114;13.788;2023-02-01T03:21:39;99158.09;;;5.42;100.00
19672;BME280;9983;51.114;13.788;2023-02-01T03:26:43;99159.03;;;5.68;100.00
19672;BME280;9983;51.114;13.788;2023-02-01T03:31:45;99162.09;;;5.46;100.00
19672;BME280;9983;51.114;13.788;2023-02-01T03:36:51;99145.56;;;5.34;100.00
19672;BME280;9983;51.114;13.788;2023-02-01T03:41:57;99145.94;;;5.57;100.00
19672;BME280;9983;51.114;13.788;2023-02-01T03:47:05;99151.38;;;5.38;100.00
19672;BME280;9983;51.114;13.788;2023-02-01T03:52:17;99140.50;;;5.76;99.13
19672;BME280;9983;51.114;13.788;2023-02-01T03:57:31;99138.06;;;5.65;98.49
19672;BME280;9983;51.114;13.788;2023-02-01T04:02:33;99133.03;;;5.62;99.18
19672;BME280;9983;51.114;13.788;2023-02-01T04:07:34;99127.69;;;5.62;99.19
19672;BME280;9983;51.114;13.788;2023-02-01T04:12:34;99122.56;;;5.43;99.22
19672;BME280;9983;51.114;13.788;2023-02-01T04:17:34;99120.13;;;5.67;99.43
19672;BME280;9983;51.114;13.788;2023-02-01T04:22:35;99108.72;;;5.57;98.37
19672;BME280;9983;51.114;13.788;2023-02-01T04:27:35;99106.13;;;6.00;96.91
19672;BME280;9983;51.114;13.788;2023-02-01T04:32:36;99099.38;;;5.35;99.34
19672;BME280;9983;51.114;13.788;2023-02-01T04:37:37;99098.84;;;5.67;98.42
19672;BME280;9983;51.114;13.788;2023-02-01T04:42:37;99096.78;;;5.25;99.54
19672;BME280;9983;51.114;13.788;2023-02-01T04:47:37;99083.59;;;5.33;99.12
19672;BME280;9983;51.114;13.788;2023-02-01T04:52:38;99087.31;;;5.41;98.59
19672;BME280;9983;51.114;13.788;2023-02-01T04:57:38;99071.66;;;5.38;98.22
19672;BME280;9983;51.114;13.788;2023-02-01T05:02:40;99070.88;;;5.63;96.89
19672;BME280;9983;51.114;13.788;2023-02-01T05:07:40;99064.00;;;5.78;95.95
19672;BME280;9983;51.114;13.788;2023-02-01T05:12:43;99059.94;;;5.66;95.12
19672;BME280;9983;51.114;13.788;2023-02-01T05:18:02;99048.69;;;5.72;94.26
19672;BME280;9983;51.114;13.788;2023-02-01T05:23:02;99046.28;;;5.25;96.30
19672;BME280;9983;51.114;13.788;2023-02-01T05:28:03;99036.44;;;5.36;96.02
19672;BME280;9983;51.114;13.788;2023-02-01T05:33:03;99030.13;;;5.80;93.62
19672;BME280;9983;51.114;13.788;2023-02-01T05:38:03;99025.78;;;5.36;94.35
19672;BME280;9983;51.114;13.788;2023-02-01T05:43:04;99045.00;;;6.08;90.50
19672;BME280;9983;51.114;13.788;2023-02-01T05:48:04;99043.69;;;5.69;92.27
19672;BME280;9983;51.114;13.788;2023-02-01T05:53:04;99034.91;;;5.51;93.59
19672;BME280;9983;51.114;13.788;2023-02-01T05:58:05;99040.00;;;5.70;92.70
19672;BME280;9983;51.114;13.788;2023-02-01T06:03:06;99020.63;;;5.52;93.14
19672;BME280;9983;51.114;13.788;2023-02-01T06:08:06;99027.03;;;5.67;94.84
19672;BME280;9983;51.114;13.788;2023-02-01T06:13:07;99022.88;;;5.47;97.02
19672;BME280;9983;51.114;13.788;2023-02-01T06:18:08;99020.16;;;5.39;99.07
19672;BME280;9983;51.114;13.788;2023-02-01T06:23:08;99020.91;;;5.49;98.03
19672;BME280;9983;51.114;13.788;2023-02-01T06:28:09;99018.44;;;5.73;96.04
19672;BME280;9983;51.114;13.788;2023-02-01T06:33:09;99011.31;;;5.56;95.48
19672;BME280;9983;51.114;13.788;2023-02-01T06:38:10;99013.97;;;5.73;92.88
19672;BME280;9983;51.114;13.788;2023-02-01T06:43:11;99017.09;;;5.69;93.47
19672;BME280;9983;51.114;13.788;2023-02-01T06:48:11;99011.31;;;5.56;94.70
19672;BME280;9983;51.114;13.788;2023-02-01T06:53:11;99015.75;;;5.29;94.91
19672;BME280;9983;51.114;13.788;2023-02-01T06:58:12;99006.31;;;5.53;94.24
19672;BME280;9983;51.114;13.788;2023-02-01T07:03:12;99014.16;;;5.80;93.83
19672;BME280;9983;51.114;13.788;2023-02-01T07:08:12;99012.16;;;5.56;95.04
19672;BME280;9983;51.114;13.788;2023-02-01T07:13:13;99005.59;;;5.43;97.11
19672;BME280;9983;51.114;13.788;2023-02-01T07:18:16;98999.94;;;5.46;99.91
19672;BME280;9983;51.114;13.788;2023-02-01T07:23:16;99011.34;;;5.03;100.00
19672;BME280;9983;51.114;13.788;2023-02-01T07:28:17;98986.78;;;5.01;100.00
19672;BME280;9983;51.114;13.788;2023-02-01T07:33:22;98997.22;;;5.02;100.00
19672;BME280;9983;51.114;13.788;2023-02-01T07:38:23;98991.16;;;4.92;100.00
19672;BME280;9983;51.114;13.788;2023-02-01T07:43:23;98981.53;;;5.09;100.00
19672;BME280;9983;51.114;13.788;2023-02-01T07:48:25;98986.84;;;5.09;100.00
19672;BME280;9983;51.114;13.788;2023-02-01T07:53:25;98977.63;;;5.03;100.00
19672;BME280;9983;51.114;13.788;2023-02-01T07:58:26;98978.25;;;5.32;100.00
19672;BME280;9983;51.114;13.788;2023-02-01T08:03:26;98975.03;;;5.47;100.00
19672;BME280;9983;51.114;13.788;2023-02-01T08:08:27;98970.66;;;5.02;100.00
19672;BME280;9983;51.114;13.788;2023-02-01T08:13:27;98963.16;;;4.97;100.00
19672;BME280;9983;51.114;13.788;2023-02-01T08:18:28;98980.06;;;4.79;100.00
19672;BME280;9983;51.114;13.788;2023-02-01T08:23:28;98962.00;;;4.82;100.00
19672;BME280;9983;51.114;13.788;2023-02-01T08:28:28;98958.75;;;5.06;100.00
19672;BME280;9983;51.114;13.788;2023-02-01T08:33:29;98952.16;;;4.75;100.00
19672;BME280;9983;51.114;13.788;2023-02-01T08:38:29;98942.66;;;4.72;100.00
19672;BME280;9983;51.114;13.788;2023-02-01T08:43:29;98935.91;;;4.78;100.00
19672;BME280;9983;51.114;13.788;2023-02-01T08:48:30;98939.38;;;4.96;100.00
19672;BME280;9983;51.114;13.788;2023-02-01T08:53:30;98951.13;;;5.11;100.00
19672;BME280;9983;51.114;13.788;2023-02-01T08:58:31;98929.78;;;5.39;100.00
19672;BME280;9983;51.114;13.788;2023-02-01T09:03:31;98927.34;;;5.27;100.00
19672;BME280;9983;51.114;13.788;2023-02-01T09:08:33;98929.16;;;5.19;100.00
19672;BME280;9983;51.114;13.788;2023-02-01T09:13:33;98904.28;;;5.54;100.00
19672;BME280;9983;51.114;13.788;2023-02-01T09:18:34;98916.84;;;5.69;100.00
19672;BME280;9983;51.114;13.788;2023-02-01T09:23:34;98940.03;;;5.77;100.00
19672;BME280;9983;51.114;13.788;2023-02-01T09:28:34;98913.84;;;5.90;100.00
19672;BME280;9983;51.114;13.788;2023-02-01T09:33:35;98918.31;;;5.64;100.00
19672;BME280;9983;51.114;13.788;2023-02-01T09:38:35;98925.09;;;5.84;100.00
19672;BME280;9983;51.114;13.788;2023-02-01T09:43:42;98925.84;;;5.43;100.00
19672;BME280;9983;51.114;13.788;2023-02-01T09:48:48;98924.63;;;5.19;100.00
19672;BME280;9983;51.114;13.788;2023-02-01T09:54:00;98941.69;;;4.91;100.00
19672;BME280;9983;51.114;13.788;2023-02-01T09:59:20;98947.25;;;4.52;100.00
19672;BME280;9983;51.114;13.788;2023-02-01T10:04:23;98957.81;;;4.17;100.00
19672;BME280;9983;51.114;13.788;2023-02-01T10:09:35;98981.91;;;3.87;100.00
19672;BME280;9983;51.114;13.788;2023-02-01T10:14:57;98986.44;;;3.76;100.00
19672;BME280;9983;51.114;13.788;2023-02-01T10:25:32;98983.53;;;4.07;100.00
19672;BME280;9983;51.114;13.788;2023-02-01T10:30:44;98987.75;;;4.00;100.00
19672;BME280;9983;51.114;13.788;2023-02-01T10:35:46;98989.25;;;4.39;100.00
19672;BME280;9983;51.114;13.788;2023-02-01T10:40:46;98990.91;;;4.40;100.00
19672;BME280;9983;51.114;13.788;2023-02-01T10:45:47;98990.28;;;4.56;100.00
19672;BME280;9983;51.114;13.788;2023-02-01T10:50:58;98995.28;;;4.59;100.00
19672;BME280;9983;51.114;13.788;2023-02-01T10:56:06;98992.91;;;4.83;100.00
19672;BME280;9983;51.114;13.788;2023-02-01T11:01:07;99011.84;;;4.71;100.00
19672;BME280;9983;51.114;13.788;2023-02-01T11:06:33;99019.41;;;4.93;100.00
19672;BME280;9983;51.114;13.788;2023-02-01T11:16:54;99005.88;;;5.40;100.00
19672;BME280;9983;51.114;13.788;2023-02-01T11:21:57;98993.28;;;5.42;100.00
19672;BME280;9983;51.114;13.788;2023-02-01T11:27:00;98999.28;;;5.44;100.00
19672;BME280;9983;51.114;13.788;2023-02-01T11:32:02;99007.56;;;5.41;100.00
19672;BME280;9983;51.114;13.788;2023-02-01T11:37:03;98989.00;;;5.49;100.00
19672;BME280;9983;51.114;13.788;2023-02-01T11:42:12;99006.00;;;5.56;100.00
19672;BME280;9983;51.114;13.788;2023-02-01T11:47:30;98988.72;;;5.52;100.00
19672;BME280;9983;51.114;13.788;2023-02-01T11:52:40;98982.25;;;5.80;100.00
19672;BME280;9983;51.114;13.788;2023-02-01T11:58:12;98972.81;;;5.60;100.00
19672;BME280;9983;51.114;13.788;2023-02-01T12:03:30;98978.53;;;5.29;100.00
19672;BME280;9983;51.114;13.788;2023-02-01T12:08:49;98959.56;;;5.24;100.00
19672;BME280;9983;51.114;13.788;2023-02-01T12:19:29;98948.19;;;5.84;100.00
19672;BME280;9983;51.114;13.788;2023-02-01T12:25:03;98945.13;;;5.96;100.00
19672;BME280;9983;51.114;13.788;2023-02-01T12:30:36;98952.84;;;5.82;100.00
19672;BME280;9983;51.114;13.788;2023-02-01T12:35:49;98940.72;;;5.87;100.00
19672;BME280;9983;51.114;13.788;2023-02-01T12:46:22;98928.81;;;6.25;100.00
19672;BME280;9983;51.114;13.788;2023-02-01T12:51:28;98932.63;;;6.31;100.00
19672;BME280;9983;51.114;13.788;2023-02-01T12:56:47;98930.66;;;6.33;100.00
19672;BME280;9983;51.114;13.788;2023-02-01T13:02:33;98913.47;;;6.19;100.00
19672;BME280;9983;51.114;13.788;2023-02-01T13:07:51;98916.91;;;6.12;100.00
19672;BME280;9983;51.114;13.788;2023-02-01T13:13:01;98922.69;;;6.41;100.00
19672;BME280;9983;51.114;13.788;2023-02-01T13:18:05;98909.06;;;6.36;100.00
19672;BME280;9983;51.114;13.788;2023-02-01T13:23:52;98919.75;;;6.52;100.00
19672;BME280;9983;51.114;13.788;2023-02-01T13:28:47;98916.78;;;6.79;100.00
19672;BME280;9983;51.114;13.788;2023-02-01T13:39:39;98901.47;;;6.73;100.00
19672;BME280;9983;51.114;13.788;2023-02-01T13:44:52;98892.50;;;6.99;100.00
19672;BME280;9983;51.114;13.788;2023-02-01T13:50:01;98902.81;;;6.94;100.00
19672;BME280;9983;51.114;13.788;2023-02-01T13:55:15;98882.81;;;6.65;100.00
19672;BME280;9983;51.114;13.788;2023-02-01T14:00:25;98875.00;;;6.80;100.00
19672;BME280;9983;51.114;13.788;2023-02-01T14:16:10;98898.09;;;6.55;100.00
19672;BME280;9983;51.114;13.788;2023-02-01T14:21:25;98878.47;;;6.64;100.00
19672;BME280;9983;51.114;13.788;2023-02-01T14:31:31;98872.97;;;6.50;100.00
19672;BME280;9983;51.114;13.788;2023-02-01T14:36:45;98875.13;;;6.54;100.00
19672;BME280;9983;51.114;13.788;2023-02-01T14:41:47;98877.13;;;6.52;100.00
19672;BME280;9983;51.114;13.788;2023-02-01T14:47:11;98869.16;;;6.60;100.00
19672;BME280;9983;51.114;13.788;2023-02-01T14:52:37;98875.81;;;6.64;100.00
19672;BME280;9983;51.114;13.788;2023-02-01T14:57:43;98873.16;;;6.97;100.00
19672;BME280;9983;51.114;13.788;2023-02-01T15:02:45;98879.94;;;6.42;100.00
19672;BME280;9983;51.114;13.788;2023-02-01T15:07:50;98850.53;;;6.68;100.00
19672;BME280;9983;51.114;13.788;2023-02-01T15:12:51;98854.19;;;6.83;100.00
19672;BME280;9983;51.114;13.788;2023-02-01T15:17:54;98859.66;;;6.58;100.00
19672;BME280;9983;51.114;13.788;2023-02-01T15:23:03;98848.50;;;6.54;100.00
19672;BME280;9983;51.114;13.788;2023-02-01T15:28:05;98825.88;;;6.66;100.00
19672;BME280;9983;51.114;13.788;2023-02-01T15:43:29;98801.50;;;6.13;100.00
19672;BME280;9983;51.114;13.788;2023-02-01T15:48:36;98801.22;;;6.64;100.00
19672;BME280;9983;51.114;13.788;2023-02-01T15:53:37;98768.72;;;6.12;100.00
19672;BME280;9983;51.114;13.788;2023-02-01T15:58:41;98784.09;;;6.51;100.00
19672;BME280;9983;51.114;13.788;2023-02-01T16:03:44;98773.59;;;6.41;100.00
19672;BME280;9983;51.114;13.788;2023-02-01T16:09:00;98759.97;;;6.52;100.00
19672;BME280;9983;51.114;13.788;2023-02-01T16:14:01;98772.59;;;6.26;100.00
19672;BME280;9983;51.114;13.788;2023-02-01T16:19:01;98742.19;;;5.86;100.00
19672;BME280;9983;51.114;13.788;2023-02-01T16:24:02;98742.63;;;6.24;100.00
19672;BME280;9983;51.114;13.788;2023-02-01T16:29:04;98744.22;;;5.84;100.00
19672;BME280;9983;51.114;13.788;2023-02-01T16:34:13;98744.53;;;5.81;100.00
19672;BME280;9983;51.114;13.788;2023-02-01T16:39:14;98756.75;;;5.58;100.00
19672;BME280;9983;51.114;13.788;2023-02-01T16:44:15;98784.41;;;5.73;100.00
19672;BME280;9983;51.114;13.788;2023-02-01T16:49:25;98791.38;;;5.32;100.00
19672;BME280;9983;51.114;13.788;2023-02-01T16:54:25;98795.28;;;4.50;100.00
19672;BME280;9983;51.114;13.788;2023-02-01T16:59:26;98818.63;;;4.29;100.00
19672;BME280;9983;51.114;13.788;2023-02-01T17:04:26;98881.44;;;4.11;100.00
19672;BME280;9983;51.114;13.788;2023-02-01T17:09:27;98808.28;;;2.89;100.00
19672;BME280;9983;51.114;13.788;2023-02-01T17:14:30;98753.41;;;3.19;100.00
19672;BME280;9983;51.114;13.788;2023-02-01T17:19:31;98777.94;;;3.21;100.00
19672;BME280;9983;51.114;13.788;2023-02-01T17:24:32;98807.31;;;3.64;100.00
19672;BME280;9983;51.114;13.788;2023-02-01T17:29:32;98813.22;;;3.58;100.00
19672;BME280;9983;51.114;13.788;2023-02-01T17:34:32;98837.84;;;3.68;100.00
19672;BME280;9983;51.114;13.788;2023-02-01T17:39:33;98849.13;;;3.70;100.00
19672;BME280;9983;51.114;13.788;2023-02-01T17:44:55;98859.59;;;3.35;100.00
19672;BME280;9983;51.114;13.788;2023-02-01T17:49:55;98875.63;;;3.43;100.00
19672;BME280;9983;51.114;13.788;2023-02-01T17:54:56;98869.84;;;3.57;100.00
19672;BME280;9983;51.114;13.788;2023-02-01T17:59:56;98891.31;;;3.64;100.00
19672;BME280;9983;51.114;13.788;2023-02-01T18:04:56;98893.63;;;3.30;100.00
19672;BME280;9983;51.114;13.788;2023-02-01T18:09:57;98898.03;;;3.58;100.00
19672;BME280;9983;51.114;13.788;2023-02-01T18:14:58;98913.13;;;3.48;100.00
19672;BME280;9983;51.114;13.788;2023-02-01T18:19:59;98901.88;;;3.73;100.00
19672;BME280;9983;51.114;13.788;2023-02-01T18:24:59;98911.72;;;3.44;100.00
19672;BME280;9983;51.114;13.788;2023-02-01T18:29:59;98918.41;;;3.48;100.00
19672;BME280;9983;51.114;13.788;2023-02-01T18:35:00;98902.50;;;3.48;100.00
19672;BME280;9983;51.114;13.788;2023-02-01T18:40:00;98908.75;;;3.94;100.00
19672;BME280;9983;51.114;13.788;2023-02-01T18:45:00;98908.56;;;4.05;100.00
19672;BME280;9983;51.114;13.788;2023-02-01T18:50:01;98919.06;;;3.97;100.00
19672;BME280;9983;51.114;13.788;2023-02-01T18:55:01;98908.84;;;3.74;100.00
19672;BME280;9983;51.114;13.788;2023-02-01T19:00:03;98904.44;;;4.20;100.00
19672;BME280;9983;51.114;13.788;2023-02-01T19:05:06;98906.19;;;4.02;100.00
19672;BME280;9983;51.114;13.788;2023-02-01T19:10:11;98905.00;;;3.87;100.00
19672;BME280;9983;51.114;13.788;2023-02-01T19:15:12;98903.06;;;4.16;100.00
19672;BME280;9983;51.114;13.788;2023-02-01T19:20:17;98907.75;;;3.95;100.00
19672;BME280;9983;51.114;13.788;2023-02-01T19:25:23;98914.84;;;4.04;100.00
19672;BME280;9983;51.114;13.788;2023-02-01T19:30:24;98920.53;;;3.81;100.00
19672;BME280;9983;51.114;13.788;2023-02-01T19:35:24;98923.56;;;3.87;100.00
19672;BME280;9983;51.114;13.788;2023-02-01T19:40:24;98936.38;;;4.01;100.00
19672;BME280;9983;51.114;13.788;2023-02-01T19:45:25;98941.97;;;3.98;100.00
19672;BME280;9983;51.114;13.788;2023-02-01T19:50:25;98947.53;;;3.95;100.00
19672;BME280;9983;51.114;13.788;2023-02-01T19:55:26;98933.03;;;3.99;100.00
19672;BME280;9983;51.114;13.788;2023-02-01T20:00:27;98924.38;;;3.97;100.00
19672;BME280;9983;51.114;13.788;2023-02-01T20:05:27;98931.16;;;4.09;100.00
19672;BME280;9983;51.114;13.788;2023-02-01T20:10:28;98939.75;;;3.93;100.00
19672;BME280;9983;51.114;13.788;2023-02-01T20:15:28;98927.19;;;3.86;100.00
19672;BME280;9983;51.114;13.788;2023-02-01T20:20:28;98948.19;;;3.69;100.00
19672;BME280;9983;51.114;13.788;2023-02-01T20:25:29;98951.16;;;3.66;100.00
19672;BME280;9983;51.114;13.788;2023-02-01T20:30:30;98958.75;;;3.89;100.00
19672;BME280;9983;51.114;13.788;2023-02-01T20:35:31;98958.72;;;3.98;100.00
19672;BME280;9983;51.114;13.788;2023-02-01T20:40:32;98964.63;;;3.83;100.00
19672;BME280;9983;51.114;13.788;2023-02-01T20:45:32;98980.97;;;3.68;100.00
19672;BME280;9983;51.114;13.788;2023-02-01T20:50:33;98972.47;;;3.74;100.00
19672;BME280;9983;51.114;13.788;2023-02-01T20:55:33;98962.72;;;3.65;100.00
19672;BME280;9983;51.114;13.788;2023-02-01T21:00:34;98970.56;;;3.57;100.00
19672;BME280;9983;51.114;13.788;2023-02-01T21:05:34;98970.97;;;4.09;100.00
19672;BME280;9983;51.114;13.788;2023-02-01T21:10:41;98972.28;;;3.86;100.00
19672;BME280;9983;51.114;13.788;2023-02-01T21:15:42;98976.81;;;4.03;100.00
19672;BME280;9983;51.114;13.788;2023-02-01T21:20:43;98977.03;;;4.19;100.00
19672;BME280;9983;51.114;13.788;2023-02-01T21:25:46;98978.22;;;4.07;100.00
19672;BME280;9983;51.114;13.788;2023-02-01T21:30:46;98985.25;;;3.89;100.00
19672;BME280;9983;51.114;13.788;2023-02-01T21:35:49;98972.56;;;4.19;100.00
19672;BME280;9983;51.114;13.788;2023-02-01T21:40:49;98996.38;;;4.02;100.00
19672;BME280;9983;51.114;13.788;2023-02-01T21:46:12;98988.34;;;4.21;100.00
19672;BME280;9983;51.114;13.788;2023-02-01T21:51:13;98985.41;;;4.24;100.00
19672;BME280;9983;51.114;13.788;2023-02-01T21:56:15;98981.47;;;4.28;100.00
19672;BME280;9983;51.114;13.788;2023-02-01T22:01:15;98988.63;;;3.91;100.00
19672;BME280;9983;51.114;13.788;2023-02-01T22:06:22;98989.09;;;4.04;100.00
19672;BME280;9983;51.114;13.788;2023-02-01T22:11:23;98994.41;;;4.04;100.00
19672;BME280;9983;51.114;13.788;2023-02-01T22:16:24;99003.94;;;3.97;100.00
19672;BME280;9983;51.114;13.788;2023-02-01T22:21:24;98998.25;;;4.19;100.00
19672;BME280;9983;51.114;13.788;2023-02-01T22:26:27;99000.25;;;4.17;100.00
19672;BME280;9983;51.114;13.788;2023-02-01T22:31:27;98998.84;;;4.13;100.00
19672;BME280;9983;51.114;13.788;2023-02-01T22:36:27;99006.97;;;4.02;100.00
19672;BME280;9983;51.114;13.788;2023-02-01T22:41:27;98998.09;;;4.57;100.00
19672;BME280;9983;51.114;13.788;2023-02-01T22:46:28;99006.69;;;4.05;100.00
19672;BME280;9983;51.114;13.788;2023-02-01T22:51:31;99012.88;;;3.86;100.00
19672;BME280;9983;51.114;13.788;2023-02-01T22:56:36;98992.63;;;4.32;100.00
19672;BME280;9983;51.114;13.788;2023-02-01T23:01:36;98996.78;;;4.07;100.00
19672;BME280;9983;51.114;13.788;2023-02-01T23:06:36;99000.41;;;4.43;100.00
19672;BME280;9983;51.114;13.788;2023-02-01T23:11:37;99013.31;;;4.28;100.00
19672;BME280;9983;51.114;13.788;2023-02-01T23:16:38;99025.84;;;4.36;100.00
19672;BME280;9983;51.114;13.788;2023-02-01T23:21:38;99014.88;;;4.21;100.00
19672;BME280;9983;51.114;13.788;2023-02-01T23:26:39;99017.63;;;4.29;100.00
19672;BME280;9983;51.114;13.788;2023-02-01T23:31:41;99014.81;;;4.68;100.00
19672;BME280;9983;51.114;13.788;2023-02-01T23:36:41;99022.97;;;4.56;100.00
19672;BME280;9983;51.114;13.788;2023-02-01T23:41:41;99023.94;;;4.18;100.00
19672;BME280;9983;51.114;13.788;2023-02-01T23:46:42;99024.53;;;4.12;100.00
19672;BME280;9983;51.114;13.788;2023-02-01T23:51:46;99030.31;;;4.35;100.00
19672;BME280;9983;51.114;13.788;2023-02-01T23:56:49;99025.59;;;4.84;100.00
